createdAt,value
2022-10-14T02:55:22.482Z,23.30
2022-10-14T02:57:49.739Z,24.80
2022-10-14T03:00:17.480Z,25.70
2022-10-14T03:02:44.291Z,24.00
2022-10-14T03:05:11.169Z,24.80
2022-10-14T03:07:39.004Z,24.80
2022-10-14T03:10:08.699Z,25.30
2022-10-14T03:12:36.002Z,33.50
2022-10-14T03:15:03.721Z,31.00
2022-10-14T03:17:30.688Z,39.60
2022-10-14T03:20:01.149Z,40.80
2022-10-14T03:22:27.869Z,23.20
2022-10-14T03:24:55.054Z,21.30
2022-10-14T03:27:28.156Z,21.60
2022-10-14T03:29:58.880Z,23.40
2022-10-14T03:32:25.633Z,24.10
2022-10-14T03:35:12.308Z,22.30
2022-10-14T03:37:41.271Z,22.10
2022-10-14T03:40:08.880Z,21.10
2022-10-14T03:42:35.766Z,19.70
2022-10-14T03:45:02.706Z,20.80
2022-10-14T03:47:32.353Z,21.20
2022-10-14T03:50:00.949Z,22.00
2022-10-14T03:52:33.185Z,19.50
2022-10-14T03:55:05.312Z,18.80
2022-10-14T03:57:32.419Z,20.80
2022-10-14T04:00:00.019Z,20.60
2022-10-14T04:02:40.779Z,18.50
2022-10-14T04:05:10.335Z,17.80
2022-10-14T04:07:37.996Z,16.50
2022-10-14T04:10:05.998Z,17.80
2022-10-14T04:12:33.239Z,17.70
2022-10-14T04:15:08.036Z,18.30
2022-10-14T04:17:43.563Z,19.40
2022-10-14T04:20:12.235Z,20.70
2022-10-14T04:22:39.145Z,14.40
2022-10-14T04:25:10.304Z,16.20
2022-10-14T04:27:37.298Z,17.50
2022-10-14T04:30:08.114Z,19.90
2022-10-14T04:32:43.821Z,18.10
2022-10-14T04:35:10.775Z,18.90
2022-10-14T04:37:40.474Z,13.70
2022-10-14T04:40:12.154Z,16.60
2022-10-14T04:42:43.506Z,25.80
2022-10-14T04:45:17.977Z,24.70
2022-10-14T04:47:50.189Z,27.10
2022-10-14T04:50:20.120Z,23.40
2022-10-14T04:53:02.460Z,22.90
2022-10-14T04:55:29.365Z,20.00
2022-10-14T04:57:56.567Z,20.30
2022-10-14T05:00:24.191Z,17.80
2022-10-14T05:02:54.507Z,19.00
2022-10-14T05:05:27.031Z,16.80
2022-10-14T05:07:55.250Z,17.30
2022-10-14T05:10:25.182Z,17.60
2022-10-14T05:12:53.655Z,15.50
2022-10-14T05:15:21.723Z,18.60
2022-10-14T05:17:55.982Z,24.30
2022-10-14T05:20:29.053Z,17.20
2022-10-14T05:22:56.299Z,21.80
2022-10-14T05:25:23.171Z,19.00
2022-10-14T05:27:50.366Z,18.60
2022-10-14T05:30:17.326Z,17.70
2022-10-14T05:32:46.884Z,16.70
2022-10-14T05:35:14.203Z,18.80
2022-10-14T05:37:41.323Z,19.50
2022-10-14T05:40:09.248Z,20.20
2022-10-14T05:42:36.388Z,20.50
2022-10-14T05:45:03.669Z,19.40
2022-10-14T05:47:31.190Z,21.40
2022-10-14T05:50:03.566Z,22.50
2022-10-14T05:52:34.289Z,19.90
2022-10-14T05:55:02.739Z,19.80
2022-10-14T05:57:29.495Z,19.10
2022-10-14T05:59:56.226Z,19.80
2022-10-14T06:02:23.439Z,19.20
2022-10-14T06:04:53.912Z,20.40
2022-10-14T06:07:20.771Z,21.30
2022-10-14T06:09:48.301Z,20.10
2022-10-14T06:12:15.017Z,19.20
2022-10-14T06:14:41.767Z,15.70
2022-10-14T06:17:09.098Z,19.80
2022-10-14T06:19:36.592Z,18.90
2022-10-14T06:22:03.835Z,19.10
2022-10-14T06:24:30.602Z,19.70
2022-10-14T06:26:57.406Z,15.50
2022-10-14T06:29:26.410Z,14.80
2022-10-14T06:31:53.171Z,16.00
2022-10-14T06:34:23.126Z,18.90
2022-10-14T06:36:49.805Z,18.40
2022-10-14T06:39:16.582Z,20.20
2022-10-14T06:41:43.271Z,19.20
2022-10-14T06:44:16.957Z,17.50
2022-10-14T06:46:44.128Z,16.50
2022-10-14T06:49:11.005Z,16.90
2022-10-14T06:51:39.712Z,16.20
2022-10-14T06:54:07.836Z,20.80
2022-10-14T06:56:34.695Z,35.20
2022-10-14T06:59:01.678Z,27.40
2022-10-14T07:01:28.452Z,21.60
2022-10-14T07:03:56.755Z,21.00
2022-10-14T07:06:24.214Z,23.10
2022-10-14T07:08:50.893Z,19.60
2022-10-14T07:11:17.590Z,24.10
2022-10-14T07:13:44.347Z,24.50
2022-10-14T07:16:11.086Z,22.60
2022-10-14T07:18:38.001Z,17.60
2022-10-14T07:21:05.843Z,18.70
2022-10-14T07:23:32.606Z,19.30
2022-10-14T07:26:00.372Z,21.70
2022-10-14T07:28:27.464Z,25.60
2022-10-14T07:31:05.511Z,25.10
2022-10-14T07:33:32.726Z,23.30
2022-10-14T07:36:03.371Z,22.90
2022-10-14T07:38:30.611Z,22.10
2022-10-14T07:41:00.987Z,22.10
2022-10-14T07:43:28.442Z,21.90
2022-10-14T07:46:01.039Z,27.70
2022-10-14T07:48:32.647Z,22.50
2022-10-14T07:51:07.546Z,21.80
2022-10-14T07:53:36.155Z,22.50
2022-10-14T07:56:03.509Z,22.10
2022-10-14T07:58:31.450Z,19.80
2022-10-14T08:00:58.906Z,17.40
2022-10-14T08:03:26.467Z,16.70
2022-10-14T08:06:02.450Z,16.30
2022-10-14T08:08:29.596Z,13.90
2022-10-14T08:11:06.933Z,14.40
2022-10-14T08:13:35.158Z,15.50
2022-10-14T08:16:02.654Z,15.70
2022-10-14T08:18:29.793Z,13.70
2022-10-14T08:20:56.807Z,14.80
2022-10-14T08:23:23.574Z,14.20
2022-10-14T08:25:50.706Z,15.50
2022-10-14T08:28:17.771Z,15.30
2022-10-14T08:30:44.680Z,14.40
2022-10-14T08:33:13.203Z,14.60
2022-10-14T08:35:40.254Z,15.10
2022-10-14T08:38:07.164Z,16.60
2022-10-14T08:40:53.408Z,15.90
2022-10-14T08:43:29.781Z,15.00
2022-10-14T08:46:05.131Z,16.30
2022-10-14T08:48:34.132Z,18.70
2022-10-14T08:51:08.924Z,18.20
2022-10-14T08:53:40.466Z,17.40
2022-10-14T08:56:08.753Z,15.90
2022-10-14T08:58:47.416Z,16.70
2022-10-14T09:01:22.835Z,19.10
2022-10-14T09:03:52.962Z,17.80
2022-10-14T09:06:26.533Z,19.20
2022-10-14T09:09:01.032Z,19.60
2022-10-14T09:11:34.296Z,20.50
2022-10-14T09:14:02.773Z,20.40
2022-10-14T09:16:34.586Z,20.20
2022-10-14T09:19:08.726Z,18.80
2022-10-14T09:21:52.081Z,21.00
2022-10-14T09:24:24.002Z,20.70
2022-10-14T09:26:54.744Z,18.80
2022-10-14T09:29:28.821Z,20.00
2022-10-14T09:31:59.197Z,20.10
2022-10-14T09:34:31.395Z,18.50
2022-10-14T09:37:06.148Z,18.30
2022-10-14T09:39:39.057Z,18.20
2022-10-14T09:42:13.490Z,19.40
2022-10-14T09:44:40.270Z,17.30
2022-10-14T09:47:13.135Z,18.70
2022-10-14T09:49:43.955Z,17.70
2022-10-14T09:52:22.445Z,15.30
2022-10-14T09:54:59.047Z,16.80
2022-10-14T09:57:26.921Z,17.00
2022-10-14T09:59:58.749Z,18.20
2022-10-14T10:02:36.320Z,19.80
2022-10-14T10:05:34.006Z,19.20
2022-10-14T10:08:16.162Z,17.40
2022-10-14T10:11:03.581Z,18.60
2022-10-14T10:13:40.177Z,19.90
2022-10-14T10:16:18.565Z,14.40
2022-10-14T10:18:45.317Z,15.80
2022-10-14T10:21:24.873Z,18.10
2022-10-14T10:23:56.105Z,16.50
2022-10-14T10:26:29.476Z,15.60
2022-10-14T10:28:57.857Z,18.00
2022-10-14T10:31:28.977Z,16.30
2022-10-14T10:34:02.007Z,14.60
2022-10-14T10:36:41.129Z,17.00
2022-10-14T10:39:24.688Z,16.60
2022-10-14T10:42:16.879Z,17.30
2022-10-14T10:44:58.937Z,15.70
2022-10-14T10:47:37.561Z,19.00
2022-10-14T10:50:17.022Z,18.90
2022-10-14T10:52:44.923Z,17.50
2022-10-14T10:55:42.442Z,19.70
2022-10-14T10:58:40.618Z,17.60
2022-10-14T11:01:32.369Z,18.90
2022-10-14T11:04:09.038Z,18.30
2022-10-14T11:07:09.999Z,17.40
2022-10-14T11:10:06.612Z,17.00
2022-10-14T11:12:43.052Z,17.40
2022-10-14T11:18:04.872Z,18.60
2022-10-14T11:20:39.132Z,18.90
2022-10-14T11:23:21.201Z,17.30
2022-10-14T11:25:54.188Z,15.80
2022-10-14T11:28:21.967Z,13.80
2022-10-14T11:31:03.811Z,15.40
2022-10-14T11:33:57.079Z,15.90
2022-10-14T11:36:55.467Z,14.50
2022-10-14T11:39:22.299Z,14.90
2022-10-14T11:41:55.649Z,14.30
2022-10-14T11:47:10.215Z,14.00
2022-10-14T11:49:44.498Z,16.30
2022-10-14T11:52:20.929Z,13.90
2022-10-14T11:54:53.841Z,15.70
2022-10-14T11:57:28.493Z,14.50
2022-10-14T12:00:14.349Z,15.50
2022-10-14T12:03:27.299Z,16.20
2022-10-14T12:06:06.152Z,15.40
2022-10-14T12:08:46.284Z,15.10
2022-10-14T12:11:43.825Z,14.30
2022-10-14T12:14:19.128Z,13.30
2022-10-14T12:16:48.674Z,14.40
2022-10-14T12:19:24.814Z,14.20
2022-10-14T12:22:14.189Z,15.40
2022-10-14T12:24:47.670Z,14.80
2022-10-14T12:27:16.399Z,14.70
2022-10-14T12:29:46.611Z,17.80
2022-10-14T12:32:16.599Z,20.30
2022-10-14T12:34:44.133Z,17.20
2022-10-14T12:37:32.603Z,17.90
2022-10-14T12:40:03.201Z,17.50
2022-10-14T12:42:32.367Z,15.10
2022-10-14T12:45:14.252Z,13.80
2022-10-14T12:47:41.401Z,15.20
2022-10-14T12:50:17.794Z,16.00
2022-10-14T12:52:47.298Z,15.40
2022-10-14T12:55:19.406Z,15.70
2022-10-14T12:57:55.366Z,14.70
2022-10-14T13:00:22.021Z,15.20
2022-10-14T13:02:51.941Z,15.80
2022-10-14T13:05:43.280Z,15.70
2022-10-14T13:08:20.730Z,14.70
2022-10-14T13:10:50.503Z,14.70
2022-10-14T13:13:41.970Z,15.50
2022-10-14T13:16:10.266Z,15.70
2022-10-14T13:18:51.041Z,14.50
2022-10-14T13:21:37.642Z,14.80
2022-10-14T13:24:17.118Z,13.30
2022-10-14T13:26:54.130Z,14.80
2022-10-14T13:29:20.885Z,14.90
2022-10-14T13:32:06.198Z,14.20
2022-10-14T13:34:44.073Z,14.40
2022-10-14T13:37:21.673Z,15.00
2022-10-14T13:39:48.542Z,14.90
2022-10-14T13:42:24.558Z,15.20
2022-10-14T13:44:53.574Z,15.10
2022-10-14T13:47:22.030Z,13.10
2022-10-14T13:49:50.491Z,13.50
2022-10-14T13:52:24.332Z,14.00
2022-10-14T13:55:22.398Z,13.50
2022-10-14T13:58:13.526Z,13.20
2022-10-14T14:00:49.221Z,14.50
2022-10-14T14:03:20.293Z,14.10
2022-10-14T14:05:47.940Z,13.70
2022-10-14T14:08:42.392Z,15.20
2022-10-14T14:11:19.086Z,14.00
2022-10-14T14:13:59.973Z,15.30
2022-10-14T14:16:32.816Z,14.80
2022-10-14T14:19:15.360Z,14.70
2022-10-14T14:21:42.279Z,14.60
2022-10-14T14:24:18.228Z,13.90
2022-10-14T14:26:53.699Z,12.00
2022-10-14T14:29:28.673Z,14.00
2022-10-14T14:32:11.536Z,12.40
2022-10-14T14:34:42.901Z,13.00
2022-10-14T14:37:40.167Z,13.40
2022-10-14T14:40:16.096Z,12.00
2022-10-14T14:42:45.773Z,13.30
2022-10-14T14:45:19.695Z,12.50
2022-10-14T14:47:50.179Z,13.80
2022-10-14T14:50:35.927Z,13.70
2022-10-14T14:53:12.385Z,13.80
2022-10-14T14:55:46.662Z,13.80
2022-10-14T14:58:32.968Z,13.00
2022-10-14T15:01:00.050Z,12.80
2022-10-14T15:03:30.883Z,13.60
2022-10-14T15:08:51.922Z,13.40
2022-10-14T15:11:20.216Z,13.40
2022-10-14T15:13:53.006Z,14.30
2022-10-14T15:16:42.294Z,13.40
2022-10-14T15:19:25.858Z,12.00
2022-10-14T15:22:16.850Z,12.80
2022-10-14T15:25:05.442Z,14.10
2022-10-14T15:27:34.733Z,14.00
2022-10-14T15:30:18.771Z,12.80
2022-10-14T15:32:46.060Z,14.40
2022-10-14T15:35:15.156Z,15.40
2022-10-14T15:37:42.201Z,14.20
2022-10-14T15:40:13.220Z,14.10
2022-10-14T15:42:39.944Z,14.80
2022-10-14T15:45:07.627Z,13.90
2022-10-14T15:47:35.145Z,14.80
2022-10-14T15:50:07.322Z,15.60
2022-10-14T15:52:34.073Z,13.50
2022-10-14T15:55:00.837Z,15.60
2022-10-14T15:57:27.572Z,14.70
2022-10-14T15:59:54.649Z,15.00
2022-10-14T16:02:32.899Z,15.90
2022-10-14T16:05:18.717Z,16.00
2022-10-14T16:07:48.428Z,14.90
2022-10-14T16:10:18.652Z,14.30
2022-10-14T16:12:45.762Z,16.10
2022-10-14T16:15:32.505Z,16.30
2022-10-14T16:18:00.354Z,15.80
2022-10-14T16:20:27.026Z,15.60
2022-10-14T16:22:53.934Z,15.70
2022-10-14T16:25:25.355Z,15.50
2022-10-14T16:27:52.729Z,15.10
2022-10-14T16:30:20.930Z,15.40
2022-10-14T16:32:47.725Z,15.50
2022-10-14T16:35:14.488Z,15.20
2022-10-14T16:37:41.863Z,17.10
2022-10-14T16:40:11.354Z,19.50
2022-10-14T16:42:38.371Z,18.20
2022-10-14T16:45:06.097Z,18.00
2022-10-14T16:47:33.043Z,20.60
2022-10-14T16:49:59.967Z,21.00
2022-10-14T16:52:27.008Z,20.30
2022-10-14T16:54:53.969Z,19.90
2022-10-14T16:57:21.009Z,21.20
2022-10-14T16:59:47.835Z,21.90
2022-10-14T17:02:16.302Z,22.40
2022-10-14T17:04:46.433Z,21.80
2022-10-14T17:07:14.862Z,22.90
2022-10-14T17:09:42.059Z,32.50
2022-10-14T17:12:13.016Z,25.00
2022-10-14T17:14:41.199Z,29.00
2022-10-14T17:17:08.048Z,33.30
2022-10-14T17:19:35.223Z,31.80
2022-10-14T17:22:03.309Z,38.00
2022-10-14T17:24:30.323Z,39.60
2022-10-14T17:26:57.106Z,37.30
2022-10-14T17:29:24.267Z,34.90
2022-10-14T17:31:51.403Z,36.70
2022-10-14T17:34:18.098Z,38.70
2022-10-14T17:36:44.830Z,36.00
2022-10-14T17:39:18.911Z,31.90
2022-10-14T17:41:51.327Z,29.60
2022-10-14T17:44:18.485Z,27.90
2022-10-14T17:46:45.524Z,31.30
2022-10-14T17:49:13.096Z,30.10
2022-10-14T17:51:39.771Z,29.40
2022-10-14T17:54:10.392Z,26.90
2022-10-14T17:56:38.110Z,25.60
2022-10-14T17:59:08.246Z,26.10
2022-10-14T18:02:02.237Z,27.00
2022-10-14T18:04:22.157Z,25.40
2022-10-14T18:06:48.994Z,25.30
2022-10-14T18:09:15.760Z,24.00
2022-10-14T18:14:30.162Z,24.60
2022-10-14T18:16:56.954Z,24.90
2022-10-14T18:19:23.738Z,24.90
2022-10-14T18:21:51.838Z,24.80
2022-10-14T18:24:18.555Z,26.10
2022-10-14T18:26:45.245Z,24.30
2022-10-14T18:29:11.988Z,24.80
2022-10-14T18:31:39.390Z,25.90
2022-10-14T18:34:10.450Z,26.20
2022-10-14T18:36:38.006Z,26.90
2022-10-14T18:39:07.226Z,27.70
2022-10-14T18:41:49.417Z,26.00
2022-10-14T18:44:16.232Z,24.50
2022-10-14T18:46:43.120Z,25.30
2022-10-14T18:49:11.623Z,25.90
2022-10-14T18:51:40.296Z,24.00
2022-10-14T18:54:12.377Z,26.60
2022-10-14T18:56:55.816Z,26.80
2022-10-14T18:59:23.719Z,27.80
2022-10-14T19:01:53.332Z,28.00
2022-10-14T19:04:23.559Z,27.40
2022-10-14T19:06:50.738Z,27.80
2022-10-14T19:09:21.617Z,27.90
2022-10-14T19:11:51.088Z,28.70
2022-10-14T19:14:18.283Z,28.10
2022-10-14T19:16:47.583Z,26.50
2022-10-14T19:19:18.320Z,24.30
2022-10-14T19:21:48.530Z,24.70
2022-10-14T19:24:15.955Z,25.70
2022-10-14T19:26:44.974Z,25.70
2022-10-14T19:29:15.602Z,26.60
2022-10-14T19:31:43.970Z,27.90
2022-10-14T19:34:13.993Z,26.30
2022-10-14T19:36:41.628Z,26.80
2022-10-14T19:39:12.300Z,27.20
2022-10-14T19:41:43.196Z,26.30
2022-10-14T19:44:11.549Z,26.70
2022-10-14T19:46:38.992Z,27.50
2022-10-14T19:49:06.087Z,28.50
2022-10-14T19:51:34.348Z,28.60
2022-10-14T19:54:01.208Z,28.20
2022-10-14T19:56:28.683Z,27.50
2022-10-14T19:58:58.001Z,28.30
2022-10-14T20:01:27.305Z,27.20
2022-10-14T20:03:54.557Z,27.30
2022-10-14T20:06:22.509Z,29.20
2022-10-14T20:08:50.045Z,27.90
2022-10-14T20:11:19.799Z,29.70
2022-10-14T20:13:47.186Z,30.80
2022-10-14T20:16:14.746Z,27.60
2022-10-14T20:18:41.816Z,28.10
2022-10-14T20:21:11.710Z,25.90
2022-10-14T20:23:38.817Z,29.70
2022-10-14T20:26:08.385Z,29.00
2022-10-14T20:28:36.679Z,29.90
2022-10-14T20:31:07.299Z,34.40
2022-10-14T20:33:34.047Z,31.90
2022-10-14T20:36:08.831Z,32.70
2022-10-14T20:38:41.834Z,32.10
2022-10-14T20:41:13.317Z,32.90
2022-10-14T20:43:41.641Z,33.70
2022-10-14T20:46:08.783Z,34.40
2022-10-14T20:48:37.455Z,37.40
2022-10-14T20:51:05.639Z,33.10
2022-10-14T20:53:32.928Z,32.70
2022-10-14T20:56:04.152Z,42.10
2022-10-14T20:58:30.940Z,39.30
2022-10-14T21:01:14.866Z,49.70
2022-10-14T21:03:43.255Z,56.10
2022-10-14T21:06:13.427Z,84.30
2022-10-14T21:08:40.482Z,74.60
2022-10-14T21:11:13.965Z,72.30
2022-10-14T21:13:47.323Z,67.20
2022-10-14T21:16:25.843Z,70.50
2022-10-14T21:18:57.895Z,76.30
2022-10-14T21:21:27.541Z,82.00
2022-10-14T21:23:55.474Z,81.00
2022-10-14T21:26:22.917Z,81.90
2022-10-14T21:28:49.915Z,89.80
2022-10-14T21:31:19.208Z,81.60
2022-10-14T21:33:47.946Z,81.50
2022-10-14T21:36:16.776Z,92.40
2022-10-14T21:38:43.985Z,65.30
2022-10-14T21:41:11.383Z,68.30
2022-10-14T21:43:39.375Z,61.90
2022-10-14T21:46:09.496Z,58.10
2022-10-14T21:48:36.353Z,50.80
2022-10-14T21:51:04.892Z,45.40
2022-10-14T21:53:32.834Z,36.40
2022-10-14T21:55:59.658Z,39.10
2022-10-14T21:58:27.093Z,40.30
2022-10-14T22:01:04.936Z,40.30
2022-10-14T22:03:32.109Z,40.70
2022-10-14T22:06:01.365Z,35.50
2022-10-14T22:08:31.296Z,35.50
2022-10-14T22:10:58.234Z,34.80
2022-10-14T22:13:27.406Z,35.60
2022-10-14T22:15:54.714Z,32.00
2022-10-14T22:18:22.035Z,33.30
2022-10-14T22:20:50.615Z,32.80
2022-10-14T22:23:17.396Z,31.30
2022-10-14T22:25:44.303Z,31.20
2022-10-14T22:28:11.042Z,30.60
2022-10-14T22:30:37.925Z,31.60
2022-10-14T22:35:36.700Z,30.00
2022-10-14T22:38:03.616Z,30.80
2022-10-14T22:40:30.280Z,32.10
2022-10-14T22:42:57.224Z,29.00
2022-10-14T22:45:24.012Z,32.20
2022-10-14T22:47:50.748Z,28.00
2022-10-14T22:50:17.573Z,31.00
2022-10-14T22:52:44.236Z,35.10
2022-10-14T22:55:10.963Z,33.90
2022-10-14T22:57:37.677Z,34.70
2022-10-14T23:00:05.428Z,38.50
2022-10-14T23:02:32.286Z,37.50
2022-10-14T23:04:59.495Z,37.30
2022-10-14T23:07:28.872Z,38.90
2022-10-14T23:09:55.803Z,36.10
2022-10-14T23:12:22.830Z,34.50
2022-10-14T23:14:51.324Z,33.60
2022-10-14T23:17:18.129Z,35.30
2022-10-14T23:19:46.540Z,33.10
2022-10-14T23:22:13.298Z,31.60
2022-10-14T23:24:40.175Z,40.90
2022-10-14T23:27:06.870Z,33.50
2022-10-14T23:29:33.591Z,38.40
2022-10-14T23:32:00.599Z,33.40
2022-10-14T23:34:27.612Z,34.70
2022-10-14T23:39:26.520Z,33.00
2022-10-14T23:41:54.289Z,34.50
2022-10-14T23:44:20.942Z,32.20
2022-10-14T23:46:47.684Z,29.00
2022-10-14T23:49:25.682Z,30.20
2022-10-14T23:51:53.789Z,32.30
2022-10-14T23:54:20.574Z,31.50
2022-10-14T23:56:47.316Z,31.10
2022-10-14T23:59:14.153Z,30.10
